Time;durP1;ratioP1;P1;durP2;ratioP2;P2;SDS_P1;SDS_P2;PMS_P1;PMS_P2;Temp;Humidity;BMP_temperature;BMP_pressure;BME280_temperature;BME280_humidity;BME280_pressure;Samples;Min_cycle;Max_cycle;Signal;HPM_P1;HPM_P2
2023/03/25 00:00:56;;;;;;;120.35;82.50;;;333.10;2329.60;;;;;;5096514;28;20024;-79
2023/03/25 00:03:27;;;;;;;99.78;66.60;;;333.00;2329.60;;;;;;5096321;28;20031;-80
2023/03/25 00:05:54;;;;;;;106.53;66.68;;;332.80;2329.60;;;;;;5096247;28;20023;-80
2023/03/25 00:08:21;;;;;;;112.68;73.72;;;333.00;2329.60;;;;;;5096150;28;20459;-81
2023/03/25 00:10:56;;;;;;;114.05;74.47;;;333.00;2329.60;;;;;;5096361;28;20026;-80
2023/03/25 00:13:22;;;;;;;105.22;68.10;;;333.10;2329.60;;;;;;5096228;28;20036;-77
2023/03/25 00:15:52;;;;;;;97.70;66.88;;;333.20;2329.60;;;;;;5095964;28;20386;-78
2023/03/25 00:18:21;;;;;;;105.82;67.22;;;333.00;2329.60;;;;;;5096036;28;20472;-77
2023/03/25 00:20:52;;;;;;;97.60;63.90;;;333.00;2329.60;;;;;;5114360;28;20068;-77
2023/03/25 00:23:19;;;;;;;88.05;56.25;;;333.20;2329.60;;;;;;5095808;28;20034;-76
2023/03/25 00:25:44;;;;;;;86.47;55.35;;;333.10;2329.60;;;;;;5095801;28;20038;-77
2023/03/25 00:28:12;;;;;;;77.00;52.10;;;333.10;2329.60;;;;;;5095971;28;20031;-77
2023/03/25 00:30:39;;;;;;;100.10;63.45;;;333.10;2329.60;;;;;;5095665;28;20049;-78
2023/03/25 00:33:05;;;;;;;78.40;52.65;;;333.10;2329.60;;;;;;5095553;28;20051;-77
2023/03/25 00:35:31;;;;;;;81.65;53.30;;;308.10;2304.00;;;;;;5095669;28;20490;-78
2023/03/25 00:38:01;;;;;;;78.18;51.03;;;307.80;2304.00;;;;;;5095791;28;20083;-77
2023/03/25 00:40:29;;;;;;;84.75;54.60;;;308.00;2304.00;;;;;;5095786;28;20023;-77
2023/03/25 00:42:56;;;;;;;81.80;55.58;;;308.00;2304.00;;;;;;5095510;28;20031;-76
2023/03/25 00:45:22;;;;;;;84.57;55.33;;;308.00;2304.00;;;;;;5095621;28;20035;-77
2023/03/25 00:47:48;;;;;;;97.35;62.85;;;308.10;2304.00;;;;;;5095485;28;20121;-77
2023/03/25 00:50:14;;;;;;;101.95;64.85;;;308.10;2304.00;;;;;;5095500;28;20368;-78
2023/03/25 00:52:40;;;;;;;102.65;65.18;;;332.80;2329.60;;;;;;5095764;28;20097;-77
2023/03/25 00:55:06;;;;;;;83.90;54.40;;;308.10;2304.00;;;;;;5095548;28;20122;-78
2023/03/25 00:57:33;;;;;;;84.18;52.53;;;332.80;2329.60;;;;;;5111222;28;20024;-77
2023/03/25 00:59:59;;;;;;;72.70;49.20;;;308.00;2304.00;;;;;;5092348;28;20028;-77
2023/03/25 01:02:25;;;;;;;85.35;52.60;;;307.90;2304.00;;;;;;5077343;28;20028;-77
2023/03/25 01:04:50;;;;;;;127.18;77.35;;;307.90;2304.00;;;;;;5079012;28;20121;-78
2023/03/25 01:07:19;;;;;;;98.60;61.42;;;308.00;2304.00;;;;;;5079359;28;20099;-78
2023/03/25 01:09:45;;;;;;;107.10;63.42;;;308.10;2304.00;;;;;;5079365;28;20034;-78
2023/03/25 01:12:12;;;;;;;96.15;55.80;;;308.00;2304.00;;;;;;5079355;28;20428;-77
2023/03/25 01:14:38;;;;;;;82.30;49.95;;;307.60;2304.00;;;;;;5079272;28;20024;-77
2023/03/25 01:17:04;;;;;;;68.72;45.50;;;307.60;2304.00;;;;;;5079387;28;20034;-77
2023/03/25 01:19:30;;;;;;;76.45;48.72;;;307.30;2304.00;;;;;;5079012;28;20028;-77
2023/03/25 01:21:56;;;;;;;74.30;43.42;;;307.80;2304.00;;;;;;5079025;28;20024;-77
2023/03/25 01:24:21;;;;;;;60.95;39.63;;;307.80;2304.00;;;;;;5078897;28;20464;-77
2023/03/25 01:26:47;;;;;;;64.50;35.92;;;307.80;2304.00;;;;;;5079115;28;20024;-77
2023/03/25 01:29:16;;;;;;;111.50;48.80;;;307.90;2304.00;;;;;;5096831;28;20124;-77
2023/03/25 01:31:42;;;;;;;84.50;39.15;;;307.80;2304.00;;;;;;5078569;28;20059;-78
2023/03/25 01:34:08;;;;;;;60.47;32.75;;;307.80;2304.00;;;;;;5096903;28;20544;-78
2023/03/25 01:36:36;;;;;;;57.90;34.13;;;307.80;2304.00;;;;;;5078889;28;20059;-77
2023/03/25 01:39:04;;;;;;;58.45;34.30;;;307.70;2304.00;;;;;;5097106;28;20020;-78
2023/03/25 01:41:31;;;;;;;49.47;33.72;;;307.60;2304.00;;;;;;5079162;28;20035;-78
2023/03/25 01:44:07;;;;;;;60.67;38.67;;;307.60;2304.00;;;;;;5096630;28;20038;-78
2023/03/25 01:46:34;;;;;;;55.25;36.45;;;307.60;2304.00;;;;;;5078524;28;20032;-77
2023/03/25 01:49:03;;;;;;;61.55;37.30;;;307.60;2304.00;;;;;;5078387;28;20028;-77
2023/03/25 01:51:34;;;;;;;71.82;40.08;;;307.60;2304.00;;;;;;5078524;28;20020;-77
2023/03/25 01:54:00;;;;;;;70.80;43.65;;;307.30;2304.00;;;;;;5078523;28;20467;-77
2023/03/25 01:56:30;;;;;;;90.35;52.88;;;307.30;2304.00;;;;;;5078864;28;20096;-78
2023/03/25 01:59:00;;;;;;;117.93;65.53;;;307.30;2304.00;;;;;;5097336;28;20054;-78
2023/03/25 02:01:26;;;;;;;89.53;53.40;;;307.20;2304.00;;;;;;5078912;28;20058;-77
2023/03/25 02:04:01;;;;;;;66.70;39.72;;;307.40;2304.00;;;;;;5078790;28;20032;-78
2023/03/25 02:06:35;;;;;;;63.70;37.35;;;307.40;2304.00;;;;;;5081019;28;20082;-78
2023/03/25 02:09:08;;;;;;;53.42;32.05;;;307.40;2304.00;;;;;;5089471;28;20023;-77
2023/03/25 02:11:34;;;;;;;49.03;29.67;;;307.50;2304.00;;;;;;5118827;28;20036;-78
2023/03/25 02:14:06;;;;;;;52.78;31.17;;;307.40;2304.00;;;;;;5085806;28;20036;-77
2023/03/25 02:16:45;;;;;;;44.38;26.63;;;307.40;2304.00;;;;;;5095501;28;20079;-77
2023/03/25 02:19:47;;;;;;;51.30;32.00;;;307.40;2304.00;;;;;;5120923;28;20032;-78
2023/03/25 02:22:16;;;;;;;60.72;36.97;;;307.30;2304.00;;;;;;5081441;28;20038;-77
2023/03/25 02:25:09;;;;;;;67.10;40.13;;;307.20;2304.00;;;;;;5079689;28;20055;-77
2023/03/25 02:27:40;;;;;;;70.32;43.05;;;282.50;2278.40;;;;;;5079873;28;20073;-77
2023/03/25 02:30:34;;;;;;;80.95;52.83;;;282.40;2278.40;;;;;;5079355;28;20028;-77
2023/03/25 02:33:31;;;;;;;78.70;49.50;;;282.40;2278.40;;;;;;5057306;28;20049;-77
2023/03/25 02:36:29;;;;;;;72.35;44.30;;;282.50;2278.40;;;;;;5054557;28;20040;-77
2023/03/25 02:39:04;;;;;;;70.57;42.72;;;282.50;2278.40;;;;;;5054414;28;20074;-77
2023/03/25 02:41:43;;;;;;;70.70;42.65;;;282.50;2278.40;;;;;;5054313;28;20017;-77
2023/03/25 02:44:08;;;;;;;68.10;40.22;;;282.40;2278.40;;;;;;5049227;28;20056;-78
2023/03/25 02:46:35;;;;;;;51.88;32.60;;;282.50;2278.40;;;;;;5050388;28;20029;-76
2023/03/25 02:49:39;;;;;;;44.03;30.30;;;282.30;2278.40;;;;;;5035029;28;20060;-78
2023/03/25 02:52:16;;;;;;;44.65;28.27;;;282.10;2278.40;;;;;;5002566;28;20041;-77
2023/03/25 02:54:46;;;;;;;41.80;26.42;;;282.20;2278.40;;;;;;5033148;28;20384;-80
2023/03/25 02:57:16;;;;;;;40.78;27.85;;;282.20;2278.40;;;;;;5035480;28;20112;-78
2023/03/25 02:59:45;;;;;;;36.33;27.52;;;282.20;2278.40;;;;;;5033948;28;20534;-77
2023/03/25 03:02:11;;;;;;;53.53;31.98;;;282.10;2278.40;;;;;;5035679;28;20026;-76
2023/03/25 03:05:19;;;;;;;48.90;31.23;;;282.20;2278.40;;;;;;5033822;28;20040;-77
2023/03/25 03:07:49;;;;;;;38.63;25.27;;;282.30;2278.40;;;;;;5033941;28;20033;-78
2023/03/25 03:10:24;;;;;;;38.92;26.77;;;282.20;2278.40;;;;;;5033948;28;20025;-77
2023/03/25 03:13:02;;;;;;;42.63;25.08;;;282.20;2278.40;;;;;;5034938;28;20025;-77
2023/03/25 03:15:44;;;;;;;40.63;26.08;;;282.10;2278.40;;;;;;5034000;28;20105;-77
2023/03/25 03:18:18;;;;;;;42.60;27.63;;;282.10;2278.40;;;;;;5033852;28;20079;-77
2023/03/25 03:21:05;;;;;;;43.25;26.63;;;282.10;2278.40;;;;;;5033708;28;20262;-78
2023/03/25 03:24:15;;;;;;;49.08;30.02;;;282.20;2278.40;;;;;;5033710;28;20033;-80
2023/03/25 03:26:42;;;;;;;52.58;32.38;;;282.20;2278.40;;;;;;5029239;28;20041;-77
2023/03/25 03:29:18;;;;;;;53.35;32.85;;;282.00;2278.40;;;;;;5035133;28;20105;-78
2023/03/25 03:32:10;;;;;;;73.95;40.88;;;282.00;2278.40;;;;;;5033312;28;20045;-77
2023/03/25 03:34:43;;;;;;;96.70;58.05;;;281.80;2278.40;;;;;;5033436;28;20036;-77
2023/03/25 03:37:14;;;;;;;82.53;51.22;;;281.60;2278.40;;;;;;5034934;28;20122;-77
2023/03/25 03:39:42;;;;;;;61.47;38.65;;;281.80;2278.40;;;;;;5035105;28;20056;-78
2023/03/25 03:42:41;;;;;;;48.88;31.80;;;281.70;2278.40;;;;;;5033311;28;20026;-78
2023/03/25 03:45:19;;;;;;;31.85;23.05;;;281.70;2278.40;;;;;;5033266;28;20034;-77
2023/03/25 03:47:50;;;;;;;31.92;18.75;;;281.70;2278.40;;;;;;5033546;28;20103;-78
2023/03/25 03:50:20;;;;;;;29.40;19.55;;;281.80;2278.40;;;;;;5033212;28;20032;-78
2023/03/25 03:53:03;;;;;;;27.30;18.15;;;281.80;2278.40;;;;;;5034685;28;20469;-77
2023/03/25 03:55:31;;;;;;;;;;;281.90;2278.40;;;;;;5033531;28;20469;-78
2023/03/25 03:58:04;;;;;;;31.20;18.15;;;281.90;2278.40;;;;;;5052004;28;19908;-77
2023/03/25 04:00:51;;;;;;;29.77;17.48;;;281.90;2278.40;;;;;;5052119;28;20460;-78
2023/03/25 04:03:27;;;;;;;28.20;17.73;;;281.80;2278.40;;;;;;5051966;28;20025;-78
2023/03/25 04:06:25;;;;;;;31.23;18.80;;;281.90;2278.40;;;;;;5052860;28;20056;-77
2023/03/25 04:08:59;;;;;;;28.40;17.95;;;256.70;2252.80;;;;;;5041904;28;20037;-79
2023/03/25 04:11:43;;;;;;;22.55;16.25;;;256.70;2252.80;;;;;;5052943;28;20025;-78
2023/03/25 04:14:10;;;;;;;22.58;15.95;;;256.80;2252.80;;;;;;5052635;28;20029;-77
2023/03/25 04:16:38;;;;;;;25.33;17.33;;;256.90;2252.80;;;;;;5052803;28;20040;-77
2023/03/25 04:19:05;;;;;;;25.70;18.15;;;281.60;2278.40;;;;;;5053682;28;20029;-78
2023/03/25 04:21:32;;;;;;;30.58;18.80;;;281.80;2278.40;;;;;;5052565;28;20032;-77
2023/03/25 04:24:00;;;;;;;29.58;18.63;;;281.80;2278.40;;;;;;5052571;28;20043;-77
2023/03/25 04:26:32;;;;;;;25.00;16.73;;;256.90;2252.80;;;;;;5052324;28;20025;-78
2023/03/25 04:29:00;;;;;;;21.63;14.02;;;256.40;2252.80;;;;;;5052632;28;20029;-77
2023/03/25 04:31:29;;;;;;;25.40;17.20;;;256.70;2252.80;;;;;;5061366;28;20068;-79
2023/03/25 04:33:56;;;;;;;28.08;17.27;;;256.90;2252.80;;;;;;5075582;28;20067;-77
2023/03/25 04:36:23;;;;;;;21.38;15.57;;;281.60;2278.40;;;;;;5074947;28;20032;-78
2023/03/25 04:38:48;;;;;;;27.70;18.45;;;256.80;2252.80;;;;;;5093641;28;20098;-77
2023/03/25 04:41:14;;;;;;;34.45;19.85;;;256.50;2252.80;;;;;;5075626;28;20526;-77
2023/03/25 04:43:44;;;;;;;29.35;18.42;;;256.40;2252.80;;;;;;5075811;28;20368;-77
2023/03/25 04:46:14;;;;;;;27.10;18.27;;;256.60;2252.80;;;;;;5075600;28;20028;-77
2023/03/25 04:48:43;;;;;;;30.40;18.20;;;256.90;2252.80;;;;;;5075554;28;20032;-77
2023/03/25 04:51:11;;;;;;;23.30;13.43;;;281.60;2278.40;;;;;;5075769;28;20028;-78
2023/03/25 04:53:38;;;;;;;20.98;13.75;;;256.90;2252.80;;;;;;5073071;28;20132;-77
2023/03/25 04:56:06;;;;;;;22.77;14.13;;;256.80;2252.80;;;;;;5054561;28;20120;-79
2023/03/25 04:58:32;;;;;;;21.98;14.65;;;256.40;2252.80;;;;;;5055380;28;20028;-77
2023/03/25 05:01:04;;;;;;;24.92;15.48;;;256.50;2252.80;;;;;;5055413;28;20028;-77
2023/03/25 05:03:31;;;;;;;24.23;15.82;;;256.50;2252.80;;;;;;5073089;28;20028;-78
2023/03/25 05:05:57;;;;;;;25.05;14.93;;;256.60;2252.80;;;;;;5073353;28;20020;-78
2023/03/25 05:08:23;;;;;;;18.95;13.32;;;256.80;2252.80;;;;;;5055150;28;20059;-77
2023/03/25 05:10:49;;;;;;;20.98;13.40;;;256.70;2252.80;;;;;;5073475;28;20032;-78
2023/03/25 05:13:15;;;;;;;21.40;14.10;;;256.70;2252.80;;;;;;5055305;28;20024;-77
2023/03/25 05:15:42;;;;;;;24.88;16.60;;;256.90;2252.80;;;;;;5055135;28;20502;-77
2023/03/25 05:18:11;;;;;;;24.20;15.88;;;256.80;2252.80;;;;;;5055390;28;20122;-77
2023/03/25 05:20:38;;;;;;;29.38;19.52;;;256.50;2252.80;;;;;;5055115;28;20032;-77
2023/03/25 05:23:11;;;;;;;29.02;20.25;;;256.20;2252.80;;;;;;5072780;28;20024;-77
2023/03/25 05:25:41;;;;;;;28.73;18.98;;;256.20;2252.80;;;;;;5055405;28;20460;-77
2023/03/25 05:28:08;;;;;;;24.00;16.52;;;256.30;2252.80;;;;;;5073150;28;20028;-78
2023/03/25 05:30:40;;;;;;;28.85;15.65;;;256.00;2252.80;;;;;;5054745;28;20032;-78
2023/03/25 05:33:09;;;;;;;24.80;17.13;;;256.30;2252.80;;;;;;5073295;28;20123;-77
2023/03/25 05:35:35;;;;;;;30.40;18.95;;;256.20;2252.80;;;;;;5055176;28;20438;-77
2023/03/25 05:38:01;;;;;;;29.98;19.70;;;256.20;2252.80;;;;;;5072584;28;20085;-77
2023/03/25 05:40:27;;;;;;;25.67;17.20;;;256.20;2252.80;;;;;;5055003;28;20468;-78
2023/03/25 05:42:54;;;;;;;24.83;16.58;;;;;;;;;;5072812;28;20096;-81
2023/03/25 05:45:20;;;;;;;21.65;14.77;;;231.10;2252.80;;;;;;5072717;28;20123;-80
2023/03/25 05:47:46;;;;;;;23.63;15.60;;;231.00;2252.80;;;;;;5056574;28;20511;-81
2023/03/25 05:50:15;;;;;;;27.20;19.40;;;231.00;2252.80;;;;;;5076884;28;20108;-79
2023/03/25 05:52:41;;;;;;;25.88;17.85;;;231.20;2252.80;;;;;;5076766;28;20024;-80
2023/03/25 05:55:19;;;;;;;20.80;14.10;;;231.30;2252.80;;;;;;5076491;28;20028;-80
2023/03/25 05:57:44;;;;;;;20.88;13.88;;;256.20;2252.80;;;;;;5058480;28;20120;-80
2023/03/25 06:00:12;;;;;;;25.95;14.25;;;256.40;2252.80;;;;;;5075380;28;20048;-80
2023/03/25 06:02:41;;;;;;;29.50;16.23;;;256.50;2252.80;;;;;;5058441;28;20024;-79
2023/03/25 06:05:12;;;;;;;27.13;18.35;;;256.60;2252.80;;;;;;5076306;28;20029;-78
2023/03/25 06:07:41;;;;;;;26.90;18.98;;;256.60;2252.80;;;;;;5058560;28;20112;-78
2023/03/25 06:10:11;;;;;;;29.58;19.65;;;256.70;2252.80;;;;;;5076267;28;20024;-78
2023/03/25 06:12:37;;;;;;;26.45;18.83;;;281.60;2278.40;;;;;;5074844;28;20028;-78
2023/03/25 06:15:08;;;;;;;25.63;16.90;;;281.70;2278.40;;;;;;5058205;28;20032;-77
2023/03/25 06:17:37;;;;;;;27.58;18.17;;;281.90;2278.40;;;;;;5058283;28;20028;-77
2023/03/25 06:20:11;;;;;;;20.27;13.60;;;281.90;2278.40;;;;;;5057964;28;20070;-78
2023/03/25 06:22:43;;;;;;;19.35;12.80;;;282.10;2278.40;;;;;;5058313;28;20025;-76
2023/03/25 06:25:10;;;;;;;20.75;14.63;;;282.10;2278.40;;;;;;5058292;28;20165;-78
2023/03/25 06:27:39;;;;;;;20.45;14.45;;;282.30;2278.40;;;;;;5075908;28;20115;-77
2023/03/25 06:30:09;;;;;;;14.90;9.32;;;282.30;2278.40;;;;;;5075895;28;20021;-77
2023/03/25 06:32:36;;;;;;;13.57;9.68;;;282.40;2278.40;;;;;;5057637;28;20100;-77
2023/03/25 06:35:04;;;;;;;14.85;10.15;;;282.50;2278.40;;;;;;5057951;28;20463;-79
2023/03/25 06:37:30;;;;;;;20.10;13.25;;;282.50;2278.40;;;;;;5057980;28;20091;-78
2023/03/25 06:39:55;;;;;;;26.77;16.98;;;307.20;2304.00;;;;;;5057660;28;20422;-78
2023/03/25 06:42:22;;;;;;;21.63;15.23;;;307.30;2304.00;;;;;;5057967;28;20029;-79
2023/03/25 06:44:49;;;;;;;22.63;16.08;;;307.40;2304.00;;;;;;5075693;28;20025;-79
2023/03/25 06:47:15;;;;;;;24.13;15.65;;;307.40;2304.00;;;;;;5057492;28;20041;-79
2023/03/25 06:49:41;;;;;;;20.38;13.05;;;307.50;2304.00;;;;;;5057804;28;20032;-79
2023/03/25 06:52:06;;;;;;;24.38;12.02;;;307.50;2304.00;;;;;;5075562;28;20024;-79
2023/03/25 06:54:32;;;;;;;17.92;12.32;;;307.60;2304.00;;;;;;5074102;28;20028;-79
2023/03/25 06:56:58;;;;;;;16.83;11.50;;;307.70;2304.00;;;;;;5075521;28;20039;-80
2023/03/25 06:59:24;;;;;;;18.08;12.00;;;307.80;2304.00;;;;;;5073161;28;20028;-79
2023/03/25 07:01:50;;;;;;;16.65;11.48;;;307.80;2304.00;;;;;;5056898;28;20031;-80
2023/03/25 07:04:15;;;;;;;21.48;12.88;;;307.90;2304.00;;;;;;5056275;28;20029;-79
2023/03/25 07:06:41;;;;;;;20.40;12.93;;;308.00;2304.00;;;;;;5075110;28;20050;-79
2023/03/25 07:09:07;;;;;;;27.50;14.10;;;308.10;2304.00;;;;;;5057413;28;20414;-78
2023/03/25 07:11:33;;;;;;;23.33;13.93;;;332.80;2329.60;;;;;;5075918;28;20028;-79
2023/03/25 07:13:59;;;;;;;19.48;12.63;;;333.00;2329.60;;;;;;5057438;28;20032;-79
2023/03/25 07:16:25;;;;;;;18.20;11.95;;;332.80;2329.60;;;;;;5056921;28;20029;-80
2023/03/25 07:18:52;;;;;;;17.58;11.85;;;333.00;2329.60;;;;;;5076682;28;20094;-79
2023/03/25 07:21:18;;;;;;;24.45;15.20;;;333.10;2329.60;;;;;;5057485;28;20025;-80
2023/03/25 07:23:44;;;;;;;25.25;18.63;;;333.20;2329.60;;;;;;5057910;28;20028;-79
2023/03/25 07:26:13;;;;;;;22.48;17.13;;;333.20;2329.60;;;;;;5058061;28;20103;-80
2023/03/25 07:28:39;;;;;;;29.95;16.80;;;333.40;2329.60;;;;;;5086830;28;20490;-79
2023/03/25 07:31:10;;;;;;;26.27;16.23;;;333.50;2329.60;;;;;;5096606;28;20077;-78
2023/03/25 07:33:36;;;;;;;17.17;11.38;;;358.40;2329.60;;;;;;5114497;28;20023;-79
2023/03/25 07:36:03;;;;;;;18.52;10.98;;;358.50;2329.60;;;;;;5096896;28;20123;-79
2023/03/25 07:38:29;;;;;;;15.80;10.93;;;358.50;2329.60;;;;;;5097176;28;20051;-79
2023/03/25 07:40:55;;;;;;;12.55;10.73;;;358.60;2329.60;;;;;;5097023;28;20705;-79
2023/03/25 07:43:20;;;;;;;16.63;12.10;;;358.80;2329.60;;;;;;5096378;28;20032;-78
2023/03/25 07:45:46;;;;;;;15.50;9.68;;;358.90;2329.60;;;;;;5115296;28;20080;-77
2023/03/25 07:48:15;;;;;;;16.20;10.07;;;359.00;2329.60;;;;;;5096975;28;20432;-78
2023/03/25 07:50:42;;;;;;;20.88;14.18;;;359.20;2329.60;;;;;;5115008;28;20027;-79
2023/03/25 07:53:09;;;;;;;16.95;11.82;;;359.30;2329.60;;;;;;5096568;28;20496;-79
2023/03/25 07:55:35;;;;;;;14.88;10.10;;;384.10;2329.60;;;;;;5114999;28;20119;-78
2023/03/25 07:58:01;;;;;;;22.48;10.27;;;384.20;2329.60;;;;;;5091134;28;20524;-79
2023/03/25 08:00:29;;;;;;;14.93;9.13;;;384.40;2329.60;;;;;;5075544;28;20024;-78
2023/03/25 08:02:55;;;;;;;12.73;8.30;;;384.30;2329.60;;;;;;5075222;28;20081;-79
2023/03/25 08:05:21;;;;;;;13.05;9.02;;;384.50;2329.60;;;;;;5076303;28;20028;-79
2023/03/25 08:07:48;;;;;;;18.15;10.40;;;384.70;2329.60;;;;;;5094055;28;20051;-79
2023/03/25 08:10:15;;;;;;;12.18;8.40;;;384.90;2278.40;;;;;;5093881;28;20016;-79
2023/03/25 08:12:41;;;;;;;10.07;7.05;;;384.90;2227.20;;;;;;5075664;28;20115;-77
2023/03/25 08:15:07;;;;;;;15.65;9.32;;;409.60;2252.80;;;;;;5076010;28;20170;-80
2023/03/25 08:17:34;;;;;;;13.60;6.95;;;409.70;2252.80;;;;;;5094168;28;20032;-78
2023/03/25 08:19:59;;;;;;;19.10;11.38;;;409.70;2227.20;;;;;;5094308;28;20024;-78
2023/03/25 08:22:28;;;;;;;26.23;19.42;;;409.80;2227.20;;;;;;5094155;28;20451;-79
2023/03/25 08:24:54;;;;;;;15.95;13.50;;;409.90;2227.20;;;;;;5075956;28;20035;-80
2023/03/25 08:27:20;;;;;;;10.40;6.47;;;410.00;2201.60;;;;;;5093787;28;20024;-79
2023/03/25 08:29:53;;;;;;;13.35;7.00;;;410.20;2176.00;;;;;;5076168;28;20028;-79
2023/03/25 08:32:20;;;;;;;15.00;7.43;;;410.30;2176.00;;;;;;5075292;28;20177;-78
2023/03/25 08:34:46;;;;;;;11.75;7.68;;;410.30;2176.00;;;;;;5075801;28;20537;-77
2023/03/25 08:37:14;;;;;;;11.23;7.22;;;410.40;2201.60;;;;;;5075698;28;20028;-77
2023/03/25 08:39:40;;;;;;;15.18;7.88;;;410.50;2176.00;;;;;;5093858;28;20024;-77
2023/03/25 08:42:11;;;;;;;18.60;8.80;;;410.50;2176.00;;;;;;5075684;28;20111;-78
2023/03/25 08:44:38;;;;;;;12.38;7.10;;;435.40;2124.80;;;;;;5075513;28;20055;-77
2023/03/25 08:47:04;;;;;;;15.68;5.47;;;436.00;2073.60;;;;;;5075441;28;20081;-79
2023/03/25 08:49:30;;;;;;;5.07;2.90;;;435.80;2048.00;;;;;;5075732;28;20038;-79
2023/03/25 08:51:57;;;;;;;6.93;4.40;;;435.80;1945.60;;;;;;5075755;28;20110;-78
2023/03/25 08:54:24;;;;;;;6.40;4.15;;;436.00;1996.80;;;;;;5093649;28;20447;-78
2023/03/25 08:56:50;;;;;;;8.80;5.35;;;436.10;1996.80;;;;;;5075474;28;20528;-78
2023/03/25 08:59:16;;;;;;;4.97;3.30;;;460.80;2022.40;;;;;;5075544;28;20024;-78
2023/03/25 09:01:43;;;;;;;8.10;5.32;;;460.80;1996.80;;;;;;5075768;28;20055;-78
2023/03/25 09:04:09;;;;;;;7.47;4.80;;;460.80;1996.80;;;;;;5075584;28;20036;-79
2023/03/25 09:06:36;;;;;;;10.27;4.50;;;460.80;1996.80;;;;;;5093657;28;20049;-78
2023/03/25 09:09:04;;;;;;;9.43;6.05;;;436.10;1945.60;;;;;;5075555;28;20100;-78
2023/03/25 09:11:33;;;;;;;8.38;5.63;;;460.80;1996.80;;;;;;5075311;28;20352;-78
2023/03/25 09:14:03;;;;;;;9.75;6.00;;;460.90;1996.80;;;;;;5075157;28;20040;-78
2023/03/25 09:16:31;;;;;;;13.05;8.00;;;461.00;2022.40;;;;;;5093763;28;20024;-78
2023/03/25 09:18:57;;;;;;;16.35;7.18;;;461.10;1996.80;;;;;;5075426;28;20538;-77
2023/03/25 09:21:22;;;;;;;21.45;7.38;;;461.20;1996.80;;;;;;5075264;28;20059;-78
2023/03/25 09:23:48;;;;;;;16.15;9.50;;;461.30;2022.40;;;;;;5078806;28;20028;-77
2023/03/25 09:26:14;;;;;;;11.73;6.55;;;461.40;2048.00;;;;;;5079159;28;20024;-78
2023/03/25 09:28:39;;;;;;;16.60;9.77;;;461.40;2048.00;;;;;;5079233;28;20479;-78
2023/03/25 09:31:06;;;;;;;11.52;7.22;;;461.60;2048.00;;;;;;5079040;28;20111;-78
2023/03/25 09:33:32;;;;;;;10.23;6.85;;;486.40;1996.80;;;;;;5079373;28;20467;-78
2023/03/25 09:35:58;;;;;;;7.88;6.10;;;486.50;1996.80;;;;;;5097621;28;20085;-79
2023/03/25 09:38:24;;;;;;;9.90;5.35;;;486.70;1996.80;;;;;;5097548;28;20055;-78
2023/03/25 09:40:50;;;;;;;19.80;12.43;;;486.70;1971.20;;;;;;5088305;28;20062;-79
2023/03/25 09:43:37;;;;;;;14.63;10.60;;;486.70;1996.80;;;;;;5104139;28;20008;-78
2023/03/25 09:46:04;;;;;;;11.38;8.90;;;486.80;1996.80;;;;;;5104417;28;20013;-78
2023/03/25 09:48:45;;;;;;;22.48;17.67;;;486.80;1996.80;;;;;;5088985;28;20032;-77
2023/03/25 09:51:13;;;;;;;21.45;15.10;;;486.80;1945.60;;;;;;5103243;28;20052;-78
2023/03/25 09:53:42;;;;;;;19.63;14.55;;;486.80;1945.60;;;;;;5084660;28;20050;-77
2023/03/25 09:56:20;;;;;;;15.43;11.75;;;486.90;1945.60;;;;;;5085424;28;20036;-77
2023/03/25 09:58:50;;;;;;;11.02;8.40;;;486.90;1945.60;;;;;;5098981;28;20380;-77
2023/03/25 10:01:25;;;;;;;12.73;9.40;;;487.00;1945.60;;;;;;5097079;28;20114;-77
2023/03/25 10:04:28;;;;;;;11.13;7.47;;;487.00;1920.00;;;;;;5078390;28;20067;-76
2023/03/25 10:07:06;;;;;;;8.18;5.50;;;487.20;1920.00;;;;;;5076235;28;20017;-77
2023/03/25 10:10:07;;;;;;;9.80;7.95;;;487.30;1920.00;;;;;;5058569;28;20115;-78
2023/03/25 10:12:57;;;;;;;12.23;6.60;;;512.00;1920.00;;;;;;5058585;28;20116;-77
2023/03/25 10:15:37;;;;;;;9.80;6.72;;;512.00;1920.00;;;;;;5076480;28;20443;-78
2023/03/25 10:18:44;;;;;;;10.45;6.50;;;512.10;1920.00;;;;;;5069499;28;20027;-78
2023/03/25 10:21:14;;;;;;;12.50;9.15;;;512.20;1920.00;;;;;;5060087;28;20046;-77
2023/03/25 10:24:01;;;;;;;13.55;7.13;;;512.20;1920.00;;;;;;5082313;28;20027;-77
2023/03/25 10:26:40;;;;;;;16.58;10.10;;;512.20;1920.00;;;;;;5065535;28;20021;-78
2023/03/25 10:29:16;;;;;;;11.38;6.13;;;512.20;1920.00;;;;;;5068661;28;20383;-77
2023/03/25 10:31:52;;;;;;;13.68;7.57;;;512.20;1920.00;;;;;;5077560;28;20040;-78
2023/03/25 10:34:22;;;;;;;22.40;14.90;;;512.30;1945.60;;;;;;5060971;28;20028;-77
2023/03/25 10:36:57;;;;;;;29.15;19.95;;;512.30;1920.00;;;;;;5077903;28;20085;-77
2023/03/25 10:39:32;;;;;;;22.40;15.93;;;512.30;1920.00;;;;;;5064453;28;20028;-78
2023/03/25 10:42:03;;;;;;;15.90;12.57;;;512.30;1920.00;;;;;;5075409;28;20032;-78
2023/03/25 10:44:29;;;;;;;11.18;7.75;;;512.30;1920.00;;;;;;5095716;28;20062;-78
2023/03/25 10:47:14;;;;;;;12.35;8.60;;;512.40;1920.00;;;;;;5077414;28;20417;-78
2023/03/25 10:49:41;;;;;;;10.10;5.78;;;512.40;1894.40;;;;;;5077567;28;20024;-78
2023/03/25 10:52:08;;;;;;;15.65;10.75;;;512.40;1894.40;;;;;;5077394;28;20426;-76
2023/03/25 10:54:38;;;;;;;13.32;10.25;;;512.40;1920.00;;;;;;5095616;28;20020;-77
2023/03/25 10:57:11;;;;;;;11.48;7.35;;;512.40;1920.00;;;;;;5066411;28;20020;-77
2023/03/25 10:59:51;;;;;;;8.82;6.18;;;512.40;1920.00;;;;;;5090496;28;20028;-77
2023/03/25 11:02:26;;;;;;;14.38;10.27;;;512.40;1920.00;;;;;;5078841;28;20020;-77
2023/03/25 11:05:00;;;;;;;34.47;25.80;;;512.40;1920.00;;;;;;5076949;28;20055;-77
2023/03/25 11:07:36;;;;;;;13.90;11.55;;;512.40;1920.00;;;;;;5076891;28;20028;-77
2023/03/25 11:10:23;;;;;;;27.05;16.75;;;512.40;1920.00;;;;;;5095388;28;20028;-78
2023/03/25 11:12:51;;;;;;;13.43;8.02;;;512.50;1945.60;;;;;;5095061;28;20016;-76
2023/03/25 11:15:25;;;;;;;18.27;12.57;;;512.50;1945.60;;;;;;5094954;28;20360;-77
2023/03/25 11:18:20;;;;;;;23.67;14.85;;;512.50;1971.20;;;;;;5076344;28;20035;-78
2023/03/25 11:20:49;;;;;;;20.70;14.18;;;512.50;1971.20;;;;;;5051886;28;20032;-77
2023/03/25 11:23:32;;;;;;;9.98;6.78;;;512.50;1971.20;;;;;;5076599;28;20482;-76
2023/03/25 11:26:11;;;;;;;12.48;7.88;;;512.60;1945.60;;;;;;5076305;28;20034;-77
2023/03/25 11:28:43;;;;;;;14.57;8.48;;;512.70;1945.60;;;;;;5094769;28;20078;-77
2023/03/25 11:31:15;;;;;;;17.92;11.38;;;512.60;1920.00;;;;;;5083105;28;20025;-77
2023/03/25 11:34:02;;;;;;;15.27;9.32;;;512.70;1945.60;;;;;;5064280;28;20036;-79
2023/03/25 11:36:30;;;;;;;9.75;7.00;;;512.70;1920.00;;;;;;5073916;28;20436;-80
2023/03/25 11:39:18;;;;;;;8.55;6.30;;;512.70;1996.80;;;;;;5055780;28;20365;-80
2023/03/25 11:41:44;;;;;;;13.00;6.60;;;512.70;1894.40;;;;;;5055492;28;20029;-80
2023/03/25 11:44:30;;;;;;;9.75;5.80;;;512.80;1920.00;;;;;;5056408;28;20029;-80
2023/03/25 11:47:02;;;;;;;12.48;6.07;;;512.80;1894.40;;;;;;5056738;28;20077;-80
2023/03/25 11:49:34;;;;;;;11.18;6.30;;;512.90;1894.40;;;;;;5073039;28;20452;-80
2023/03/25 11:52:02;;;;;;;9.07;5.45;;;;;;;;;;5073003;28;20025;-80
2023/03/25 11:54:28;;;;;;;10.05;4.90;;;538.00;1894.40;;;;;;5073383;28;20074;-80
2023/03/25 11:56:56;;;;;;;8.35;4.80;;;538.00;1920.00;;;;;;5056436;28;20425;-80
2023/03/25 11:59:25;;;;;;;7.38;4.05;;;538.00;1894.40;;;;;;5089749;28;20118;-80
2023/03/25 12:02:01;;;;;;;6.65;3.92;;;538.20;1843.20;;;;;;5074200;28;20074;-80
2023/03/25 12:04:28;;;;;;;9.10;4.55;;;538.30;1792.00;;;;;;5093694;28;20038;-80
2023/03/25 12:07:08;;;;;;;8.43;4.88;;;538.30;1792.00;;;;;;5075757;28;20066;-80
2023/03/25 12:09:35;;;;;;;5.80;3.67;;;538.40;1792.00;;;;;;5076304;28;20459;-80
2023/03/25 12:12:36;;;;;;;7.07;4.40;;;538.30;1792.00;;;;;;5076264;28;20058;-80
2023/03/25 12:15:31;;;;;;;10.38;3.88;;;538.40;1817.60;;;;;;5076333;28;20028;-80
2023/03/25 12:18:18;;;;;;;6.93;4.40;;;538.40;1817.60;;;;;;5076115;28;20028;-80
2023/03/25 12:20:56;;;;;;;9.50;6.75;;;538.40;1792.00;;;;;;5075879;28;20091;-80
2023/03/25 12:23:31;;;;;;;6.82;4.93;;;538.40;1792.00;;;;;;5076145;28;20031;-80